Time;durP1;ratioP1;P1;durP2;ratioP2;P2;SDS_P1;SDS_P2;PMS_P1;PMS_P2;Temp;Humidity;BMP_temperature;BMP_pressure;BME280_temperature;BME280_humidity;BME280_pressure;Samples;Min_cycle;Max_cycle;Signal;HPM_P1;HPM_P2
2022/09/26 00:00:22;;;;;;;5.90;1.80;;;;;;;7.56;100.00;100104.31;5045912;28;20426;-81
2022/09/26 00:02:50;;;;;;;5.55;1.85;;;;;;;7.57;100.00;100105.94;5064542;28;20433;-81
2022/09/26 00:05:23;;;;;;;8.30;2.30;;;;;;;7.51;100.00;100098.91;5046135;28;20427;-81
2022/09/26 00:07:51;;;;;;;5.25;2.10;;;;;;;7.56;100.00;100098.09;5052898;28;20423;-80
2022/09/26 00:10:24;;;;;;;7.40;2.05;;;;;;;7.53;100.00;100090.53;5044519;28;20422;-81
2022/09/26 00:12:54;;;;;;;6.50;2.20;;;;;;;7.47;100.00;100081.59;5056414;28;20431;-80
2022/09/26 00:15:27;;;;;;;7.00;2.20;;;;;;;7.36;100.00;100088.09;5051593;28;20504;-80
2022/09/26 00:18:00;;;;;;;5.43;2.20;;;;;;;7.35;100.00;100079.19;5040974;28;20423;-80
2022/09/26 00:20:28;;;;;;;5.20;2.45;;;;;;;7.23;100.00;100060.50;5064577;28;21209;-81
2022/09/26 00:23:01;;;;;;;6.78;2.38;;;;;;;7.31;100.00;100056.47;5088967;28;20425;-81
2022/09/26 00:25:34;;;;;;;7.47;2.20;;;;;;;7.37;100.00;100060.75;5051529;28;20414;-81
2022/09/26 00:28:09;;;;;;;5.97;2.20;;;;;;;7.32;100.00;100063.50;5061007;28;20520;-81
2022/09/26 00:30:43;;;;;;;6.32;2.22;;;;;;;7.33;100.00;100065.09;5047782;28;20429;-80
2022/09/26 00:33:16;;;;;;;5.18;2.08;;;;;;;7.36;100.00;100061.88;5070816;28;20411;-81
2022/09/26 00:35:50;;;;;;;6.85;2.10;;;;;;;7.36;100.00;100061.88;5076903;28;20916;-80
2022/09/26 00:38:24;;;;;;;3.95;1.77;;;;;;;7.34;100.00;100055.09;5043668;28;20431;-80
2022/09/26 00:40:52;;;;;;;6.37;2.20;;;;;;;7.28;100.00;100040.78;5055141;28;20436;-80
2022/09/26 00:43:30;;;;;;;7.72;1.98;;;;;;;7.35;100.00;100043.16;5048187;28;20435;-81
2022/09/26 00:46:12;;;;;;;6.40;2.00;;;;;;;7.31;100.00;100045.63;5055998;28;20435;-80
2022/09/26 00:48:48;;;;;;;4.65;2.00;;;;;;;7.19;100.00;100026.97;5065221;28;20432;-81
2022/09/26 00:51:22;;;;;;;3.40;1.90;;;;;;;7.25;100.00;100023.19;5061838;28;20420;-81
2022/09/26 00:53:55;;;;;;;5.43;1.83;;;;;;;7.29;100.00;100032.38;5041175;28;20429;-81
2022/09/26 00:56:29;;;;;;;6.60;2.05;;;;;;;7.32;100.00;100025.59;5058470;28;20907;-81
2022/09/26 00:59:08;;;;;;;6.55;1.90;;;;;;;7.32;100.00;100021.00;5040012;28;20429;-80
2022/09/26 01:01:41;;;;;;;4.75;1.80;;;;;;;7.36;100.00;100023.16;5040315;28;20425;-80
2022/09/26 01:04:12;;;;;;;6.53;2.03;;;;;;;7.35;100.00;100019.63;5073787;28;20433;-81
2022/09/26 01:06:48;;;;;;;5.72;2.08;;;;;;;7.36;100.00;100015.84;5048932;28;20425;-80
2022/09/26 01:09:21;;;;;;;5.75;2.13;;;;;;;7.36;100.00;100010.44;5072735;28;20450;-80
2022/09/26 01:11:55;;;;;;;6.88;2.10;;;;;;;7.30;100.00;100009.63;5076155;28;20513;-81
2022/09/26 01:14:31;;;;;;;5.97;2.00;;;;;;;7.31;100.00;100005.81;5043461;28;20427;-81
2022/09/26 01:17:05;;;;;;;5.78;2.20;;;;;;;7.31;100.00;100002.31;5078342;28;20429;-80
2022/09/26 01:19:46;;;;;;;5.35;2.25;;;;;;;7.33;100.00;100008.25;5049959;28;20425;-80
2022/09/26 01:22:42;;;;;;;6.43;2.22;;;;;;;7.30;100.00;99998.00;5049279;28;20432;-80
2022/09/26 01:25:23;;;;;;;6.72;2.15;;;;;;;7.29;100.00;99989.06;5041794;28;20772;-81
2022/09/26 01:28:12;;;;;;;4.93;2.10;;;;;;;7.29;100.00;99980.13;5043121;28;20427;-81
2022/09/26 01:30:51;;;;;;;4.88;2.17;;;;;;;7.28;100.00;99975.81;5039763;28;20417;-81
2022/09/26 01:33:48;;;;;;;7.90;2.30;;;;;;;7.25;100.00;99969.06;5042015;28;20449;-81
2022/09/26 01:36:50;;;;;;;4.73;2.17;;;;;;;7.17;100.00;99966.91;5066774;28;20437;-81
2022/09/26 01:39:41;;;;;;;6.40;2.13;;;;;;;7.15;100.00;99967.19;5041251;28;20413;-80
2022/09/26 01:42:32;;;;;;;5.88;2.10;;;;;;;7.14;100.00;99959.34;5045118;28;20492;-81
2022/09/26 01:45:13;;;;;;;7.85;2.20;;;;;;;7.11;100.00;99957.16;5045347;28;21100;-80
2022/09/26 01:47:55;;;;;;;14.88;2.42;;;;;;;7.09;100.00;99952.03;5071920;28;20423;-81
2022/09/26 01:50:36;;;;;;;5.23;2.17;;;;;;;7.09;100.00;99954.75;5070919;28;21013;-82
2022/09/26 01:53:16;;;;;;;6.10;2.10;;;;;;;7.02;100.00;99953.41;5044698;28;20496;-80
2022/09/26 01:55:56;;;;;;;7.70;2.25;;;;;;;6.94;100.00;99949.38;5037962;28;20933;-81
2022/09/26 01:58:34;;;;;;;7.45;2.63;;;;;;;7.00;100.00;99950.97;5056883;28;20437;-81
2022/09/26 02:01:14;;;;;;;5.93;2.35;;;;;;;6.95;100.00;99948.28;5076719;28;20433;-81
2022/09/26 02:03:51;;;;;;;7.88;2.20;;;;;;;7.00;100.00;99936.63;5049558;28;20422;-81
2022/09/26 02:06:32;;;;;;;7.53;2.50;;;;;;;6.97;100.00;99938.81;5055221;28;20639;-80
2022/09/26 02:09:07;;;;;;;6.43;2.30;;;;;;;6.99;100.00;99930.44;5046375;28;20422;-81
2022/09/26 02:11:45;;;;;;;7.38;2.15;;;;;;;6.98;100.00;99928.78;5051622;28;20980;-81
2022/09/26 02:14:23;;;;;;;4.90;2.25;;;;;;;6.98;100.00;99937.72;5059658;28;20446;-80
2022/09/26 02:17:00;;;;;;;7.13;2.30;;;;;;;7.00;100.00;99936.63;5045672;28;20464;-81
2022/09/26 02:19:41;;;;;;;7.10;2.20;;;;;;;6.89;100.00;99933.13;5060230;28;20813;-84
2022/09/26 02:22:10;;;;;;;6.65;2.28;;;;;;;6.98;100.00;99920.69;5041740;28;20433;-82
2022/09/26 02:24:43;;;;;;;8.40;2.30;;;;;;;6.97;100.00;99919.06;5042746;28;20435;-81
2022/09/26 02:27:16;;;;;;;5.72;2.33;;;;;;;6.97;100.00;99908.22;5040623;28;20782;-82
2022/09/26 02:29:49;;;;;;;6.13;2.20;;;;;;;7.02;100.00;99907.44;5043314;28;20416;-81
2022/09/26 02:32:27;;;;;;;8.05;2.25;;;;;;;6.98;100.00;99905.25;5044235;28;20424;-82
2022/09/26 02:35:52;;;;;;;8.40;2.30;;;;;;;7.05;100.00;99899.56;5076348;28;20605;-80
2022/09/26 02:38:06;;;;;;;8.18;2.22;;;;;;;7.09;100.00;99894.41;5015163;28;20425;-81
2022/09/26 02:40:55;;;;;;;5.93;2.00;;;;;;;7.13;100.00;99890.88;5043367;28;20419;-81
2022/09/26 02:44:02;;;;;;;5.35;2.20;;;;;;;7.15;100.00;99894.13;5050157;28;20433;-82
2022/09/26 02:47:04;;;;;;;5.15;2.20;;;;;;;7.19;100.00;99883.53;5038687;28;20423;-81
2022/09/26 02:49:53;;;;;;;5.38;2.20;;;;;;;7.12;100.00;99877.63;5044033;28;20407;-81
2022/09/26 02:52:37;;;;;;;10.82;2.22;;;;;;;7.14;100.00;99878.16;5059143;28;20912;-81
2022/09/26 02:55:20;;;;;;;7.60;2.20;;;;;;;7.12;100.00;99867.59;5037888;28;20450;-81
2022/09/26 02:58:06;;;;;;;5.00;2.10;;;;;;;7.13;100.00;99863.81;5069202;28;20875;-81
2022/09/26 03:00:59;;;;;;;4.70;1.98;;;;;;;7.13;100.00;99857.59;5061065;28;20436;-81
2022/09/26 03:03:33;;;;;;;7.32;2.20;;;;;;;7.16;100.00;99859.75;5037770;28;20429;-81
2022/09/26 03:06:11;;;;;;;6.18;2.30;;;;;;;7.16;100.00;99867.88;5076312;28;20410;-81
2022/09/26 03:08:44;;;;;;;6.50;2.38;;;;;;;7.13;100.00;99863.81;5035361;28;20438;-82
2022/09/26 03:11:18;;;;;;;5.95;2.35;;;;;;;7.14;100.00;99843.00;5059928;28;20424;-82
2022/09/26 03:13:54;;;;;;;9.68;2.50;;;;;;;7.23;100.00;99856.75;5043584;28;20890;-81
2022/09/26 03:16:31;;;;;;;8.68;2.30;;;;;;;7.16;100.00;99840.81;5042415;28;20921;-81
2022/09/26 03:19:10;;;;;;;9.30;2.55;;;;;;;7.21;100.00;99818.31;5077108;28;20424;-81
2022/09/26 03:21:44;;;;;;;7.65;2.60;;;;;;;7.30;100.00;99824.78;5027839;28;20430;-80
2022/09/26 03:24:14;;;;;;;6.30;2.63;;;;;;;7.15;100.00;99810.25;5037227;28;20429;-81
2022/09/26 03:26:49;;;;;;;8.75;2.72;;;;;;;7.18;100.00;99816.16;5046698;28;20954;-82
2022/09/26 03:29:22;;;;;;;5.82;2.60;;;;;;;7.20;100.00;99814.00;5058712;28;20433;-81
2022/09/26 03:31:50;;;;;;;8.70;2.50;;;;;;;7.13;100.00;99809.69;5046895;28;20888;-81
2022/09/26 03:34:23;;;;;;;9.43;2.53;;;;;;;7.10;100.00;99812.16;5057477;28;20428;-82
2022/09/26 03:36:57;;;;;;;7.73;2.57;;;;;;;7.12;100.00;99799.94;5047963;28;20422;-81
2022/09/26 03:39:26;;;;;;;6.18;2.70;;;;;;;7.11;100.00;99806.47;5049064;28;20442;-81
2022/09/26 03:42:03;;;;;;;9.73;2.55;;;;;;;7.12;100.00;99791.84;5050299;28;20772;-80
2022/09/26 03:44:38;;;;;;;7.03;2.50;;;;;;;7.10;100.00;99801.34;5078212;28;20758;-80
2022/09/26 03:47:16;;;;;;;7.85;2.70;;;;;;;7.06;100.00;99798.38;5054000;28;20421;-81
2022/09/26 03:49:51;;;;;;;6.57;2.40;;;;;;;7.05;100.00;99788.63;5050551;28;20424;-80
2022/09/26 03:52:24;;;;;;;9.07;2.95;;;;;;;7.09;100.00;99787.00;5043422;28;20431;-81
2022/09/26 03:54:59;;;;;;;8.30;2.83;;;;;;;7.13;100.00;99789.97;5041493;28;20923;-81
2022/09/26 03:57:32;;;;;;;7.80;2.70;;;;;;;7.12;100.00;99781.00;5047217;28;20936;-82
2022/09/26 04:00:17;;;;;;;8.25;2.80;;;;;;;7.13;100.00;99785.34;5027853;28;20776;-82
2022/09/26 04:02:50;;;;;;;11.30;2.70;;;;;;;7.23;100.00;99772.84;5045225;28;20409;-83
2022/09/26 04:05:34;;;;;;;6.10;2.50;;;;;;;7.15;100.00;99772.34;5072403;28;20430;-81
2022/09/26 04:08:04;;;;;;;7.57;2.88;;;;;;;7.10;100.00;99755.34;5046361;28;20780;-82
2022/09/26 04:10:40;;;;;;;7.53;2.90;;;;;;;7.17;100.00;99768.53;5074962;28;20413;-80
2022/09/26 04:13:13;;;;;;;7.53;2.88;;;;;;;7.13;100.00;99763.69;5045887;28;20436;-83
2022/09/26 04:15:54;;;;;;;11.65;3.03;;;;;;;7.13;100.00;99754.78;5037984;28;20430;-83
2022/09/26 04:18:29;;;;;;;8.55;2.63;;;;;;;7.14;100.00;99751.00;5066278;28;20431;-82
2022/09/26 04:21:04;;;;;;;12.07;2.80;;;;;;;7.06;100.00;99733.44;5053777;28;20853;-82
2022/09/26 04:23:39;;;;;;;5.13;2.08;;;;;;;7.17;100.00;99744.19;5046416;28;20049;-80
2022/09/26 04:26:16;;;;;;;5.90;1.92;;;;;;;7.22;100.00;99739.59;5044419;28;20056;-81
2022/09/26 04:28:50;;;;;;;3.65;1.75;;;;;;;7.20;100.00;99730.91;5076819;28;20413;-82
2022/09/26 04:31:36;;;;;;;5.43;1.95;;;;;;;7.10;100.00;99718.25;5054333;28;20052;-82
2022/09/26 04:34:10;;;;;;;4.22;1.75;;;;;;;7.12;100.00;99721.50;5066267;28;20041;-82
2022/09/26 04:36:44;;;;;;;8.73;2.00;;;;;;;7.18;100.00;99719.59;5038478;28;20054;-82
2022/09/26 04:39:17;;;;;;;3.40;1.75;;;;;;;7.14;100.00;99723.94;5056530;28;20052;-81
2022/09/26 04:41:52;;;;;;;4.45;1.98;;;;;;;7.19;100.00;99717.66;5046543;28;20048;-81
2022/09/26 04:44:25;;;;;;;10.15;2.95;;;;;;;7.17;100.00;99717.13;5050763;28;20060;-82
2022/09/26 04:46:58;;;;;;;6.13;2.58;;;;;;;7.17;100.00;99719.84;5047861;28;20049;-83
2022/09/26 04:49:50;;;;;;;8.77;2.70;;;;;;;7.13;100.00;99711.50;5075734;28;20390;-81
2022/09/26 04:52:23;;;;;;;5.03;2.15;;;;;;;7.09;100.00;99705.81;5049933;28;20061;-82
2022/09/26 04:54:56;;;;;;;6.10;2.60;;;;;;;7.07;100.00;99699.06;5058682;28;20055;-82
2022/09/26 04:57:31;;;;;;;8.38;2.35;;;;;;;7.01;100.00;99703.72;5053878;28;20055;-82
2022/09/26 05:00:06;;;;;;;5.30;2.75;;;;;;;7.08;100.00;99700.69;5040143;28;20059;-81
2022/09/26 05:02:39;;;;;;;4.38;2.58;;;;;;;7.02;100.00;99699.13;5043649;28;20067;-82
2022/09/26 05:05:12;;;;;;;5.63;2.15;;;;;;;7.02;100.00;99691.00;5043922;28;20057;-81
2022/09/26 05:07:45;;;;;;;7.38;2.78;;;;;;;7.08;100.00;99692.56;5054633;28;20769;-82
2022/09/26 05:10:19;;;;;;;3.15;1.80;;;;;;;7.03;100.00;99673.66;5075951;28;20056;-81
2022/09/26 05:13:00;;;;;;;7.80;2.10;;;;;;;7.11;100.00;99679.31;5051331;28;20401;-81
2022/09/26 05:15:37;;;;;;;3.88;2.03;;;;;;;7.14;100.00;99683.34;5049184;28;20052;-81
2022/09/26 05:18:11;;;;;;;;;;;;;;;7.10;100.00;99674.97;5068106;28;20048;-81
2022/09/26 05:20:47;;;;;;;12.30;2.15;;;;;;;7.14;100.00;99667.13;5053622;28;19925;-81
2022/09/26 05:26:19;;;;;;;11.10;2.08;;;;;;;7.25;100.00;99665.13;5073530;28;20048;-81
2022/09/26 05:28:51;;;;;;;3.53;1.65;;;;;;;7.29;100.00;99660.75;5075776;28;20128;-81
2022/09/26 05:31:31;;;;;;;3.08;1.60;;;;;;;7.20;100.00;99665.97;5059853;28;20052;-81
2022/09/26 05:34:04;;;;;;;4.07;1.70;;;;;;;7.22;100.00;99655.69;5035037;28;20060;-80
2022/09/26 05:36:38;;;;;;;8.73;2.08;;;;;;;7.30;100.00;99665.09;5055108;28;20045;-81
2022/09/26 05:41:59;;;;;;;5.97;2.45;;;;;;;7.34;100.00;99659.94;5067137;28;20397;-81
2022/09/26 05:44:33;;;;;;;4.22;2.00;;;;;;;7.37;100.00;99653.94;5063391;28;20049;-81
2022/09/26 05:47:07;;;;;;;8.18;2.13;;;;;;;7.43;100.00;99653.63;5044759;28;20053;-81
2022/09/26 05:49:40;;;;;;;4.47;2.00;;;;;;;7.47;100.00;99654.66;5049328;28;20057;-81
2022/09/26 05:52:11;;;;;;;7.13;2.00;;;;;;;7.51;100.00;99654.88;5051539;28;20041;-81
2022/09/26 05:54:44;;;;;;;8.95;2.13;;;;;;;7.54;100.00;99645.38;5049783;28;20402;-81
2022/09/26 05:57:37;;;;;;;5.38;2.05;;;;;;;7.58;100.00;99651.84;5040098;28;20046;-80
2022/09/26 06:00:13;;;;;;;4.07;1.98;;;;;;;7.63;100.00;99636.38;5062590;28;20052;-81
2022/09/26 06:02:46;;;;;;;5.15;2.10;;;;;;;7.68;100.00;99637.41;5058212;28;20120;-81
2022/09/26 06:05:28;;;;;;;4.22;1.80;;;;;;;7.64;100.00;99632.56;5087501;28;20061;-81
2022/09/26 06:08:31;;;;;;;10.30;2.30;;;;;;;7.72;100.00;99633.03;5056947;28;20714;-81
2022/09/26 06:11:29;;;;;;;5.00;1.90;;;;;;;7.77;100.00;99628.38;5010975;28;20061;-83
2022/09/26 06:14:02;;;;;;;3.17;1.70;;;;;;;7.82;100.00;99630.25;5040816;28;20041;-82
2022/09/26 06:16:36;;;;;;;4.65;1.80;;;;;;;7.80;100.00;99624.28;5040201;28;20084;-81
2022/09/26 06:19:09;;;;;;;6.68;1.90;;;;;;;7.79;100.00;99631.63;5081488;28;20060;-81
2022/09/26 06:21:43;;;;;;;3.92;1.92;;;;;;;7.88;100.00;99637.19;5057610;28;20063;-80
2022/09/26 06:24:19;;;;;;;5.20;1.80;;;;;;;7.95;100.00;99636.84;5048714;28;20500;-80
2022/09/26 06:26:57;;;;;;;4.75;1.77;;;;;;;7.97;100.00;99621.13;5051156;28;20049;-80
2022/09/26 06:29:31;;;;;;;6.75;1.92;;;;;;;8.05;100.00;99620.50;5034465;28;20053;-80
2022/09/26 06:32:05;;;;;;;3.05;1.70;;;;;;;8.15;100.00;99617.66;5048715;28;20409;-80
2022/09/26 06:35:00;;;;;;;3.53;1.70;;;;;;;8.24;100.00;99609.69;5048639;28;20659;-81
2022/09/26 06:37:47;;;;;;;3.67;1.95;;;;;;;8.16;100.00;99611.16;5058528;28;20059;-82
2022/09/26 06:40:20;;;;;;;4.55;1.70;;;;;;;8.25;100.00;99615.94;5070541;28;20041;-80
2022/09/26 06:42:54;;;;;;;8.50;2.83;;;;;;;8.20;100.00;99592.38;5059314;28;20045;-81
2022/09/26 06:45:47;;;;;;;3.65;2.13;;;;;;;8.40;100.00;99615.72;5047284;28;20052;-81
2022/09/26 06:48:42;;;;;;;6.68;2.63;;;;;;;8.40;100.00;99599.47;5045817;28;20041;-80
2022/09/26 06:51:20;;;;;;;5.22;2.60;;;;;;;8.46;100.00;99601.03;5078642;28;20053;-82
2022/09/26 06:53:53;;;;;;;8.80;2.40;;;;;;;8.50;100.00;99590.41;5042494;28;20413;-81
2022/09/26 06:56:27;;;;;;;5.43;2.13;;;;;;;8.47;100.00;99588.28;5027300;28;20489;-83
2022/09/26 06:59:01;;;;;;;9.02;2.22;;;;;;;8.47;100.00;99596.44;5020976;28;20049;-84
2022/09/26 07:01:32;;;;;;;9.63;2.22;;;;;;;8.48;100.00;99587.19;5029147;28;20049;-84
2022/09/26 07:04:28;;;;;;;4.40;2.17;;;;;;;8.64;100.00;99596.69;5000804;28;20429;-83
2022/09/26 07:07:22;;;;;;;7.13;2.33;;;;;;;8.62;100.00;99585.34;5054464;28;20060;-82
2022/09/26 07:09:50;;;;;;;7.35;2.35;;;;;;;8.67;100.00;99590.72;5019940;28;20164;-82
2022/09/26 07:12:39;;;;;;;5.30;2.00;;;;;;;8.67;100.00;99584.47;5026702;28;20057;-88
2022/09/26 07:15:14;;;;;;;4.45;1.92;;;;;;;8.68;100.00;99584.16;5028080;28;20053;-81
2022/09/26 07:17:48;;;;;;;8.60;2.20;;;;;;;8.73;100.00;99579.75;5028351;28;20053;-81
2022/09/26 07:20:36;;;;;;;7.53;2.20;;;;;;;8.73;100.00;99577.88;5025124;28;20063;-82
2022/09/26 07:23:27;;;;;;;7.57;2.45;;;;;;;8.75;100.00;99570.22;5020478;28;20521;-80
2022/09/26 07:26:01;;;;;;;8.90;2.25;;;;;;;8.82;100.00;99581.53;5024780;28;21805;-81
2022/09/26 07:28:35;;;;;;;6.53;2.45;;;;;;;8.90;100.00;99581.97;5023297;28;20496;-83
2022/09/26 07:31:08;;;;;;;4.18;2.25;;;;;;;9.00;100.00;99587.22;5058725;28;20916;-84
2022/09/26 07:34:02;;;;;;;7.35;2.17;;;;;;;8.96;100.00;99578.06;5042129;28;20067;-83
2022/09/26 07:36:32;;;;;;;4.65;2.28;;;;;;;9.06;100.00;99583.34;5032106;28;20052;-83
2022/09/26 07:39:05;;;;;;;3.45;2.20;;;;;;;9.12;100.00;99578.63;5029684;28;20048;-82
2022/09/26 07:41:39;;;;;;;4.50;2.35;;;;;;;9.16;100.00;99572.28;5029439;28;20044;-82
2022/09/26 07:44:12;;;;;;;3.40;2.05;;;;;;;9.26;100.00;99573.22;5029802;28;20053;-83
2022/09/26 07:52:36;;;;;;;3.08;1.90;;;;;;;9.56;100.00;99574.59;5018707;28;20470;-82
2022/09/26 07:55:32;;;;;;;3.85;2.30;;;;;;;9.61;100.00;99579.94;5021271;28;20068;-82
2022/09/26 07:58:39;;;;;;;3.05;1.92;;;;;;;9.58;100.00;99566.94;4993218;28;20063;-81
2022/09/26 08:01:36;;;;;;;6.25;2.25;;;;;;;9.69;100.00;99562.13;5004025;28;20502;-83
2022/09/26 08:04:29;;;;;;;4.10;2.17;;;;;;;9.74;100.00;99567.47;5026113;28;20048;-81
2022/09/26 08:07:03;;;;;;;4.03;2.13;;;;;;;9.70;100.00;99567.25;5037923;28;20045;-82
2022/09/26 08:09:43;;;;;;;6.32;2.30;;;;;;;9.70;100.00;99563.75;5020081;28;20052;-82
2022/09/26 08:12:55;;;;;;;8.43;2.60;;;;;;;9.56;100.00;99558.28;4951728;28;20687;-83
2022/09/26 08:15:36;;;;;;;5.35;2.35;;;;;;;9.59;100.00;99556.91;4936239;28;20043;-81
2022/09/26 08:18:14;;;;;;;4.30;2.05;;;;;;;9.55;100.00;99553.97;4988656;28;20092;-82
2022/09/26 08:20:46;;;;;;;6.10;2.30;;;;;;;9.55;100.00;99550.44;5046847;28;20064;-79
2022/09/26 08:23:15;;;;;;;5.32;2.10;;;;;;;9.57;100.00;99548.22;5070027;28;20539;-84
2022/09/26 08:25:45;;;;;;;6.38;2.50;;;;;;;9.43;100.00;99532.75;5029323;28;20064;-82
2022/09/26 08:28:32;;;;;;;4.63;2.55;;;;;;;9.58;100.00;99539.78;5028900;28;20064;-81
2022/09/26 08:31:07;;;;;;;5.05;2.53;;;;;;;9.63;100.00;99550.56;5027437;28;21618;-87
2022/09/26 08:33:40;;;;;;;6.72;2.38;;;;;;;9.73;100.00;99540.59;5024248;28;20052;-83
2022/09/26 08:36:15;;;;;;;6.22;2.67;;;;;;;9.68;100.00;99533.34;5034418;28;20326;-81
2022/09/26 08:39:07;;;;;;;4.20;2.28;;;;;;;9.75;100.00;99539.19;5045128;28;20068;-82
2022/09/26 08:41:59;;;;;;;5.20;2.55;;;;;;;9.79;100.00;99542.09;5032835;28;20065;-84
2022/09/26 08:48:25;;;;;;;9.55;2.67;;;;;;;9.98;100.00;99531.91;5041606;28;20079;-82
2022/09/26 08:51:21;;;;;;;4.90;2.33;;;;;;;10.19;100.00;99542.34;5027187;28;20051;-81
2022/09/26 08:54:02;;;;;;;5.32;2.20;;;;;;;10.29;100.00;99538.59;5032415;28;20063;-81
2022/09/26 08:56:39;;;;;;;6.85;2.60;;;;;;;10.38;100.00;99540.34;5061328;28;20049;-83
2022/09/26 08:59:21;;;;;;;6.35;2.38;;;;;;;10.42;100.00;99535.06;5021404;28;20560;-84
2022/09/26 09:01:52;;;;;;;6.47;2.37;;;;;;;10.56;100.00;99537.75;5015294;28;20560;-83
2022/09/26 09:04:38;;;;;;;4.13;2.33;;;;;;;10.60;100.00;99537.94;5050130;28;20067;-83
2022/09/26 09:07:20;;;;;;;5.88;2.03;;;;;;;10.75;100.00;99529.41;5036970;28;20063;-81
2022/09/26 09:10:01;;;;;;;9.80;2.58;;;;;;;10.91;100.00;99529.88;5046974;28;20064;-84
2022/09/26 09:13:05;;;;;;;5.85;2.72;;;;;;;10.88;100.00;99525.00;5041160;28;20060;-83
2022/09/26 09:15:56;;;;;;;4.97;2.80;;;;;;;10.98;100.00;99529.41;5041162;28;20067;-85
2022/09/26 09:18:59;;;;;;;5.43;2.60;;;;;;;11.01;100.00;99531.53;5025330;28;20049;-83
2022/09/26 09:22:25;;;;;;;6.65;2.78;;;;;;;11.11;100.00;99525.81;4995261;28;20192;-82
2022/09/26 09:25:18;;;;;;;5.05;2.65;;;;;;;11.18;100.00;99517.19;5032439;28;20056;-83
2022/09/26 09:28:05;;;;;;;6.68;2.65;;;;;;;11.18;100.00;99506.31;5024808;28;20080;-82
2022/09/26 09:30:40;;;;;;;6.68;2.60;;;;;;;11.28;100.00;99507.94;5020597;28;20053;-84
2022/09/26 09:33:41;;;;;;;5.80;2.38;;;;;;;11.32;100.00;99508.94;5013790;28;20057;-85
2022/09/26 09:36:41;;;;;;;8.05;2.90;;;;;;;11.35;100.00;99506.41;5015102;28;20063;-83
2022/09/26 09:39:50;;;;;;;7.82;2.92;;;;;;;11.40;100.00;99497.28;5020099;28;20060;-84
2022/09/26 09:42:27;;;;;;;;;;;;;;;11.47;100.00;99505.78;5023459;28;20060;-84
2022/09/26 09:45:00;;;;;;;6.88;2.60;;;;;;;11.47;100.00;99502.28;5041341;28;20239;-85
2022/09/26 09:47:39;;;;;;;5.70;2.70;;;;;;;11.48;100.00;99504.69;5020517;28;20049;-84
2022/09/26 09:50:15;;;;;;;5.05;2.50;;;;;;;11.62;100.00;99515.47;5027676;28;20060;-83
2022/09/26 09:52:57;;;;;;;4.72;2.50;;;;;;;11.66;100.00;99504.75;5020470;28;20080;-84
2022/09/26 09:55:41;;;;;;;6.15;2.60;;;;;;;11.66;100.00;99491.91;5030502;28;20059;-84
2022/09/26 09:58:31;;;;;;;6.00;2.80;;;;;;;11.78;100.00;99504.94;5038429;28;20748;-83
2022/09/26 10:01:13;;;;;;;5.35;2.92;;;;;;;11.88;100.00;99496.47;5021552;28;20056;-83
2022/09/26 10:03:52;;;;;;;7.13;3.03;;;;;;;11.90;100.00;99496.13;5037826;28;20052;-85
2022/09/26 10:06:27;;;;;;;7.80;3.08;;;;;;;11.86;100.00;99496.00;5014612;28;20053;-83
2022/09/26 10:08:55;;;;;;;5.65;3.10;;;;;;;11.82;100.00;99486.00;5023242;28;20051;-84
2022/09/26 10:11:52;;;;;;;5.80;2.77;;;;;;;11.85;100.00;99486.19;4990635;28;20858;-85
2022/09/26 10:14:50;;;;;;;5.93;2.90;;;;;;;11.85;100.00;99479.94;5029341;28;20067;-84
2022/09/26 10:17:39;;;;;;;8.27;3.08;;;;;;;12.12;100.00;99484.34;5010507;28;20044;-84
2022/09/26 10:20:35;;;;;;;6.90;3.25;;;;;;;12.15;100.00;99482.91;5014219;28;20071;-84
2022/09/26 10:23:21;;;;;;;8.00;2.97;;;;;;;12.20;100.00;99475.34;5022468;28;20048;-83
2022/09/26 10:26:02;;;;;;;6.80;2.80;;;;;;;12.38;100.00;99467.19;5034502;28;20368;-82
2022/09/26 10:28:46;;;;;;;7.22;2.70;;;;;;;12.37;100.00;99463.66;5013445;28;20056;-81
2022/09/26 10:31:24;;;;;;;3.97;2.15;;;;;;;12.36;100.00;99467.50;5026902;28;20048;-83
2022/09/26 10:34:23;;;;;;;5.57;2.67;;;;;;;12.26;100.00;99462.34;5018452;28;20064;-82
2022/09/26 10:36:52;;;;;;;6.80;2.35;;;;;;;12.23;100.00;99458.34;5051224;28;20454;-82
2022/09/26 10:42:24;;;;;;;5.80;2.53;;;;;;;12.18;100.00;99455.78;5016066;28;20531;-81
2022/09/26 10:44:56;;;;;;;6.30;2.85;;;;;;;12.08;100.00;99446.00;5035000;28;20057;-85
2022/09/26 10:47:50;;;;;;;12.65;2.63;;;;;;;12.11;100.00;99450.03;5016218;28;20544;-84
2022/09/26 10:50:59;;;;;;;3.83;2.13;;;;;;;12.20;100.00;99441.84;5013342;28;20061;-82
2022/09/26 10:53:47;;;;;;;6.57;2.15;;;;;;;12.32;100.00;99438.44;5014318;28;20449;-84
2022/09/26 10:56:24;;;;;;;6.20;2.60;;;;;;;12.30;100.00;99414.22;5017210;28;20049;-82
2022/09/26 10:59:04;;;;;;;5.03;2.30;;;;;;;12.49;100.00;99424.78;5020588;28;20667;-82
2022/09/26 11:01:42;;;;;;;4.43;1.80;;;;;;;12.44;100.00;99422.22;5019797;28;20057;-84
2022/09/26 11:05:55;;;;;;;8.80;4.28;;;;;;;12.44;100.00;99414.03;5024422;28;20497;-82
2022/09/26 11:07:34;;;;;;;;;;;;;;;12.22;100.00;99424.03;5014529;28;20084;-84
2022/09/26 11:10:25;;;;;;;7.60;2.85;;;;;;;11.92;100.00;99420.31;5020078;28;19925;-82
2022/09/26 11:13:16;;;;;;;6.22;2.92;;;;;;;11.84;100.00;99418.38;5014542;28;20489;-83
2022/09/26 11:16:00;;;;;;;8.00;2.38;;;;;;;11.68;100.00;99418.00;5026470;28;20045;-83
2022/09/26 11:18:45;;;;;;;10.80;3.33;;;;;;;11.55;100.00;99414.31;5018006;28;20048;-83
2022/09/26 11:21:21;;;;;;;6.72;2.35;;;;;;;11.41;100.00;99414.44;5020336;28;20049;-82
2022/09/26 11:24:01;;;;;;;;;;;;;;;11.36;100.00;99412.66;5019891;28;20072;-82
2022/09/26 11:26:33;;;;;;;;;;;;;;;11.34;100.00;99406.72;5049890;28;19929;-84
2022/09/26 11:29:13;;;;;;;;;;;;;;;11.39;100.00;99401.16;5026773;28;20363;-83
2022/09/26 11:32:01;;;;;;;;;;;;;;;11.57;100.00;99398.44;5019210;28;19935;-84
2022/09/26 11:34:47;;;;;;;;;;;;;;;11.76;100.00;99391.91;5020005;28;20327;-83
2022/09/26 11:37:31;;;;;;;;;;;;;;;11.99;100.00;99392.59;5021842;28;20293;-84
2022/09/26 11:40:15;;;;;;;;;;;;;;;12.08;100.00;99385.19;5023389;28;19944;-83
2022/09/26 11:42:58;;;;;;;;;;;;;;;12.21;100.00;99381.50;5053791;28;19975;-83
2022/09/26 11:45:40;;;;;;;;;;;;;;;12.27;100.00;99381.34;5019746;28;20602;-82
2022/09/26 11:48:50;;;;;;;;;;;;;;;12.41;100.00;99377.31;5020580;28;19928;-83
2022/09/26 11:51:50;;;;;;;;;;;;;;;12.54;100.00;99363.78;5027182;28;19929;-83
2022/09/26 11:54:37;;;;;;;;;;;;;;;12.55;100.00;99366.22;5026589;28;20395;-85
2022/09/26 11:57:09;;;;;;;;;;;;;;;12.66;100.00;99363.91;5054751;28;19940;-82
2022/09/26 11:59:52;;;;;;;;;;;;;;;12.75;100.00;99355.69;5022396;28;19928;-82
2022/09/26 12:02:34;;;;;;;;;;;;;;;12.80;100.00;99352.81;5022516;28;19936;-83
2022/09/26 12:05:24;;;;;;;;;;;;;;;12.72;100.00;99345.44;5021767;28;19929;-82
2022/09/26 12:08:14;;;;;;;;;;;;;;;12.71;100.00;99347.34;5027687;28;20565;-84
2022/09/26 12:10:50;;;;;;;;;;;;;;;12.71;100.00;99333.72;5017839;28;20208;-83
2022/09/26 12:13:33;;;;;;;;;;;;;;;12.64;100.00;99338.09;5049301;28;19936;-83
2022/09/26 12:16:11;;;;;;;;;;;;;;;12.55;100.00;99338.09;5019608;28;19936;-82
2022/09/26 12:18:45;;;;;;;;;;;;;;;12.48;100.00;99329.63;5029671;28;19940;-82
2022/09/26 12:21:24;;;;;;;;;;;;;;;12.37;100.00;99324.53;5025758;28;19935;-83
2022/09/26 12:23:53;;;;;;;;;;;;;;;12.34;100.00;99327.09;5029127;28;19936;-84
2022/09/26 12:26:33;;;;;;;;;;;;;;;12.32;100.00;99321.13;5026274;28;19925;-83
2022/09/26 12:29:17;;;;;;;;;;;;;;;12.36;100.00;99322.09;5026364;28;19935;-83
2022/09/26 12:31:59;;;;;;;;;;;;;;;12.19;100.00;99317.50;5023966;28;19928;-84
2022/09/26 12:34:45;;;;;;;;;;;;;;;12.12;100.00;99331.63;5035251;28;20125;-85
2022/09/26 12:37:31;;;;;;;;;;;;;;;11.91;100.00;99328.72;5027771;28;20374;-82
2022/09/26 12:40:13;;;;;;;;;;;;;;;11.92;100.00;99319.44;5023932;28;19928;-83
2022/09/26 12:42:56;;;;;;;;;;;;;;;11.90;100.00;99319.75;5051821;28;20393;-83
2022/09/26 12:45:39;;;;;;;;;;;;;;;11.73;100.00;99311.59;5027059;28;19929;-83
2022/09/26 12:48:19;;;;;;;;;;;;;;;11.73;100.00;99317.03;5023584;28;20306;-83
2022/09/26 12:50:58;;;;;;;;;;;;;;;11.78;100.00;99308.69;5022879;28;19929;-83
2022/09/26 12:53:44;;;;;;;;;;;;;;;11.79;100.00;99306.78;5058572;28;19928;-84
2022/09/26 12:56:22;;;;;;;;;;;;;;;11.80;100.00;99301.00;5008709;28;20342;-83
2022/09/26 12:58:57;;;;;;;;;;;;;;;11.70;100.00;99293.16;5024019;28;20353;-83